sensor_id;sensor_type;location;lat;lon;timestamp;P1;durP1;ratioP1;P2;durP2;ratioP2
7426;SDS011;3755;59.316;18.092;2022-08-21T00:00:50;7.20;;;1.40;;
7426;SDS011;3755;59.316;18.092;2022-08-21T00:03:17;5.55;;;1.52;;
7426;SDS011;3755;59.316;18.092;2022-08-21T00:05:45;6.03;;;1.40;;
7426;SDS011;3755;59.316;18.092;2022-08-21T00:08:14;4.68;;;1.25;;
7426;SDS011;3755;59.316;18.092;2022-08-21T00:10:43;6.30;;;1.35;;
7426;SDS011;3755;59.316;18.092;2022-08-21T00:13:11;8.65;;;1.75;;
7426;SDS011;3755;59.316;18.092;2022-08-21T00:15:39;5.50;;;1.38;;
7426;SDS011;3755;59.316;18.092;2022-08-21T00:18:07;5.55;;;1.40;;
7426;SDS011;3755;59.316;18.092;2022-08-21T00:20:36;6.63;;;1.60;;
7426;SDS011;3755;59.316;18.092;2022-08-21T00:23:04;4.90;;;1.40;;
7426;SDS011;3755;59.316;18.092;2022-08-21T00:25:31;6.35;;;1.50;;
7426;SDS011;3755;59.316;18.092;2022-08-21T00:28:00;2.88;;;1.08;;
7426;SDS011;3755;59.316;18.092;2022-08-21T00:30:28;3.28;;;1.13;;
7426;SDS011;3755;59.316;18.092;2022-08-21T00:32:56;8.38;;;2.05;;
7426;SDS011;3755;59.316;18.092;2022-08-21T00:35:26;4.55;;;1.80;;
7426;SDS011;3755;59.316;18.092;2022-08-21T00:37:56;6.82;;;1.63;;
7426;SDS011;3755;59.316;18.092;2022-08-21T00:40:31;2.42;;;1.20;;
7426;SDS011;3755;59.316;18.092;2022-08-21T00:43:02;4.78;;;1.60;;
7426;SDS011;3755;59.316;18.092;2022-08-21T00:45:30;5.50;;;1.52;;
7426;SDS011;3755;59.316;18.092;2022-08-21T00:47:57;7.68;;;1.70;;
7426;SDS011;3755;59.316;18.092;2022-08-21T00:50:25;7.80;;;1.55;;
7426;SDS011;3755;59.316;18.092;2022-08-21T00:52:56;5.95;;;1.45;;
7426;SDS011;3755;59.316;18.092;2022-08-21T00:55:24;6.30;;;1.80;;
7426;SDS011;3755;59.316;18.092;2022-08-21T00:57:53;4.25;;;1.67;;
7426;SDS011;3755;59.316;18.092;2022-08-21T01:00:25;4.28;;;1.40;;
7426;SDS011;3755;59.316;18.092;2022-08-21T01:02:54;5.97;;;1.50;;
7426;SDS011;3755;59.316;18.092;2022-08-21T01:05:21;3.65;;;1.27;;
7426;SDS011;3755;59.316;18.092;2022-08-21T01:07:48;4.40;;;1.35;;
7426;SDS011;3755;59.316;18.092;2022-08-21T01:10:15;9.95;;;1.80;;
7426;SDS011;3755;59.316;18.092;2022-08-21T01:12:43;4.10;;;1.10;;
7426;SDS011;3755;59.316;18.092;2022-08-21T01:15:10;5.35;;;1.40;;
7426;SDS011;3755;59.316;18.092;2022-08-21T01:17:42;3.15;;;1.40;;
7426;SDS011;3755;59.316;18.092;2022-08-21T01:20:10;5.07;;;1.90;;
7426;SDS011;3755;59.316;18.092;2022-08-21T01:22:39;5.43;;;1.75;;
7426;SDS011;3755;59.316;18.092;2022-08-21T01:25:07;7.45;;;1.90;;
7426;SDS011;3755;59.316;18.092;2022-08-21T01:27:35;3.03;;;1.40;;
7426;SDS011;3755;59.316;18.092;2022-08-21T01:30:08;7.18;;;1.48;;
7426;SDS011;3755;59.316;18.092;2022-08-21T01:32:37;3.70;;;1.25;;
7426;SDS011;3755;59.316;18.092;2022-08-21T01:35:05;4.90;;;1.58;;
7426;SDS011;3755;59.316;18.092;2022-08-21T01:37:33;6.13;;;1.42;;
7426;SDS011;3755;59.316;18.092;2022-08-21T01:40:03;4.43;;;1.50;;
7426;SDS011;3755;59.316;18.092;2022-08-21T01:42:30;6.47;;;1.83;;
7426;SDS011;3755;59.316;18.092;2022-08-21T01:44:57;5.05;;;1.40;;
7426;SDS011;3755;59.316;18.092;2022-08-21T01:47:25;5.30;;;1.35;;
7426;SDS011;3755;59.316;18.092;2022-08-21T01:49:52;7.10;;;1.52;;
7426;SDS011;3755;59.316;18.092;2022-08-21T01:52:20;3.53;;;1.27;;
7426;SDS011;3755;59.316;18.092;2022-08-21T01:54:47;7.47;;;1.75;;
7426;SDS011;3755;59.316;18.092;2022-08-21T01:57:18;6.10;;;1.75;;
7426;SDS011;3755;59.316;18.092;2022-08-21T01:59:45;7.70;;;1.50;;
7426;SDS011;3755;59.316;18.092;2022-08-21T02:02:12;7.35;;;1.60;;
7426;SDS011;3755;59.316;18.092;2022-08-21T02:04:39;5.25;;;1.90;;
7426;SDS011;3755;59.316;18.092;2022-08-21T02:07:06;6.07;;;1.50;;
7426;SDS011;3755;59.316;18.092;2022-08-21T02:09:34;4.22;;;1.60;;
7426;SDS011;3755;59.316;18.092;2022-08-21T02:12:02;7.78;;;1.80;;
7426;SDS011;3755;59.316;18.092;2022-08-21T02:14:30;8.52;;;1.50;;
7426;SDS011;3755;59.316;18.092;2022-08-21T02:16:57;7.53;;;1.70;;
7426;SDS011;3755;59.316;18.092;2022-08-21T02:19:24;5.35;;;1.48;;
7426;SDS011;3755;59.316;18.092;2022-08-21T02:21:51;7.55;;;1.77;;
7426;SDS011;3755;59.316;18.092;2022-08-21T02:24:18;4.20;;;1.58;;
7426;SDS011;3755;59.316;18.092;2022-08-21T02:26:45;7.03;;;1.77;;
7426;SDS011;3755;59.316;18.092;2022-08-21T02:29:12;4.68;;;2.00;;
7426;SDS011;3755;59.316;18.092;2022-08-21T02:31:41;4.15;;;1.65;;
7426;SDS011;3755;59.316;18.092;2022-08-21T02:34:08;6.28;;;1.60;;
7426;SDS011;3755;59.316;18.092;2022-08-21T02:36:35;4.20;;;1.13;;
7426;SDS011;3755;59.316;18.092;2022-08-21T02:39:02;6.65;;;1.77;;
7426;SDS011;3755;59.316;18.092;2022-08-21T02:41:29;8.95;;;1.90;;
7426;SDS011;3755;59.316;18.092;2022-08-21T02:43:56;4.30;;;1.80;;
7426;SDS011;3755;59.316;18.092;2022-08-21T02:46:23;7.30;;;2.17;;
7426;SDS011;3755;59.316;18.092;2022-08-21T02:48:52;6.10;;;2.15;;
7426;SDS011;3755;59.316;18.092;2022-08-21T02:51:19;6.72;;;2.15;;
7426;SDS011;3755;59.316;18.092;2022-08-21T02:53:48;9.13;;;1.85;;
7426;SDS011;3755;59.316;18.092;2022-08-21T02:56:17;5.82;;;1.67;;
7426;SDS011;3755;59.316;18.092;2022-08-21T02:58:47;7.15;;;1.60;;
7426;SDS011;3755;59.316;18.092;2022-08-21T03:01:18;6.13;;;1.50;;
7426;SDS011;3755;59.316;18.092;2022-08-21T03:03:46;7.10;;;1.80;;
7426;SDS011;3755;59.316;18.092;2022-08-21T03:06:17;7.82;;;1.80;;
7426;SDS011;3755;59.316;18.092;2022-08-21T03:08:47;6.60;;;2.33;;
7426;SDS011;3755;59.316;18.092;2022-08-21T03:11:17;6.30;;;2.00;;
7426;SDS011;3755;59.316;18.092;2022-08-21T03:13:45;7.60;;;2.08;;
7426;SDS011;3755;59.316;18.092;2022-08-21T03:16:13;8.25;;;1.75;;
7426;SDS011;3755;59.316;18.092;2022-08-21T03:18:40;13.82;;;2.03;;
7426;SDS011;3755;59.316;18.092;2022-08-21T03:21:07;5.70;;;1.55;;
7426;SDS011;3755;59.316;18.092;2022-08-21T03:23:35;6.03;;;1.70;;
7426;SDS011;3755;59.316;18.092;2022-08-21T03:26:04;6.38;;;1.60;;
7426;SDS011;3755;59.316;18.092;2022-08-21T03:28:31;6.35;;;1.80;;
7426;SDS011;3755;59.316;18.092;2022-08-21T03:30:58;7.85;;;1.90;;
7426;SDS011;3755;59.316;18.092;2022-08-21T03:33:25;5.35;;;2.10;;
7426;SDS011;3755;59.316;18.092;2022-08-21T03:35:55;8.68;;;2.13;;
7426;SDS011;3755;59.316;18.092;2022-08-21T03:38:27;4.90;;;1.75;;
7426;SDS011;3755;59.316;18.092;2022-08-21T03:40:57;4.40;;;1.95;;
7426;SDS011;3755;59.316;18.092;2022-08-21T03:43:25;7.93;;;2.03;;
7426;SDS011;3755;59.316;18.092;2022-08-21T03:45:52;7.68;;;2.00;;
7426;SDS011;3755;59.316;18.092;2022-08-21T03:48:19;5.15;;;1.60;;
7426;SDS011;3755;59.316;18.092;2022-08-21T03:50:46;6.13;;;1.98;;
7426;SDS011;3755;59.316;18.092;2022-08-21T03:53:15;8.57;;;2.30;;
7426;SDS011;3755;59.316;18.092;2022-08-21T03:55:44;6.22;;;2.08;;
7426;SDS011;3755;59.316;18.092;2022-08-21T03:58:14;7.40;;;1.80;;
7426;SDS011;3755;59.316;18.092;2022-08-21T04:00:41;7.10;;;2.10;;
7426;SDS011;3755;59.316;18.092;2022-08-21T04:03:08;7.45;;;1.75;;
7426;SDS011;3755;59.316;18.092;2022-08-21T04:05:35;7.72;;;1.90;;
7426;SDS011;3755;59.316;18.092;2022-08-21T04:08:03;7.70;;;2.35;;
7426;SDS011;3755;59.316;18.092;2022-08-21T04:10:33;11.35;;;2.72;;
7426;SDS011;3755;59.316;18.092;2022-08-21T04:13:01;6.82;;;1.98;;
7426;SDS011;3755;59.316;18.092;2022-08-21T04:15:30;6.22;;;1.98;;
7426;SDS011;3755;59.316;18.092;2022-08-21T04:17:58;6.53;;;2.03;;
7426;SDS011;3755;59.316;18.092;2022-08-21T04:20:25;9.15;;;2.28;;
7426;SDS011;3755;59.316;18.092;2022-08-21T04:22:52;6.78;;;1.83;;
7426;SDS011;3755;59.316;18.092;2022-08-21T04:25:20;9.88;;;2.17;;
7426;SDS011;3755;59.316;18.092;2022-08-21T04:27:50;6.47;;;1.92;;
7426;SDS011;3755;59.316;18.092;2022-08-21T04:30:17;5.13;;;1.55;;
7426;SDS011;3755;59.316;18.092;2022-08-21T04:32:47;11.00;;;2.22;;
7426;SDS011;3755;59.316;18.092;2022-08-21T04:35:16;8.32;;;1.95;;
7426;SDS011;3755;59.316;18.092;2022-08-21T04:37:46;7.47;;;1.65;;
7426;SDS011;3755;59.316;18.092;2022-08-21T04:40:14;6.53;;;2.03;;
7426;SDS011;3755;59.316;18.092;2022-08-21T04:42:43;8.20;;;2.00;;
7426;SDS011;3755;59.316;18.092;2022-08-21T04:45:18;6.45;;;2.33;;
7426;SDS011;3755;59.316;18.092;2022-08-21T04:47:49;4.40;;;1.70;;
7426;SDS011;3755;59.316;18.092;2022-08-21T04:50:18;10.30;;;2.53;;
7426;SDS011;3755;59.316;18.092;2022-08-21T04:52:46;9.98;;;2.10;;
7426;SDS011;3755;59.316;18.092;2022-08-21T04:55:14;13.32;;;2.47;;
7426;SDS011;3755;59.316;18.092;2022-08-21T04:57:43;9.57;;;1.92;;
7426;SDS011;3755;59.316;18.092;2022-08-21T05:00:10;9.52;;;2.08;;
7426;SDS011;3755;59.316;18.092;2022-08-21T05:02:39;10.63;;;2.15;;
7426;SDS011;3755;59.316;18.092;2022-08-21T05:05:08;7.75;;;2.00;;
7426;SDS011;3755;59.316;18.092;2022-08-21T05:07:36;9.40;;;1.90;;
7426;SDS011;3755;59.316;18.092;2022-08-21T05:10:04;5.60;;;1.95;;
7426;SDS011;3755;59.316;18.092;2022-08-21T05:12:32;9.32;;;2.03;;
7426;SDS011;3755;59.316;18.092;2022-08-21T05:15:01;9.13;;;2.38;;
7426;SDS011;3755;59.316;18.092;2022-08-21T05:17:29;8.10;;;2.13;;
7426;SDS011;3755;59.316;18.092;2022-08-21T05:19:56;8.32;;;1.90;;
7426;SDS011;3755;59.316;18.092;2022-08-21T05:22:24;11.48;;;2.30;;
7426;SDS011;3755;59.316;18.092;2022-08-21T05:24:52;8.02;;;2.33;;
7426;SDS011;3755;59.316;18.092;2022-08-21T05:27:20;3.90;;;1.40;;
7426;SDS011;3755;59.316;18.092;2022-08-21T05:29:47;7.32;;;1.73;;
7426;SDS011;3755;59.316;18.092;2022-08-21T05:32:15;6.00;;;2.15;;
7426;SDS011;3755;59.316;18.092;2022-08-21T05:34:42;6.35;;;1.85;;
7426;SDS011;3755;59.316;18.092;2022-08-21T05:37:10;9.45;;;1.95;;
7426;SDS011;3755;59.316;18.092;2022-08-21T05:39:39;10.38;;;2.38;;
7426;SDS011;3755;59.316;18.092;2022-08-21T05:42:07;7.13;;;1.90;;
7426;SDS011;3755;59.316;18.092;2022-08-21T05:44:34;7.28;;;2.47;;
7426;SDS011;3755;59.316;18.092;2022-08-21T05:47:03;10.32;;;2.05;;
7426;SDS011;3755;59.316;18.092;2022-08-21T05:49:30;7.95;;;2.53;;
7426;SDS011;3755;59.316;18.092;2022-08-21T05:51:58;12.88;;;1.88;;
7426;SDS011;3755;59.316;18.092;2022-08-21T05:54:25;13.90;;;2.28;;
7426;SDS011;3755;59.316;18.092;2022-08-21T05:56:53;10.25;;;2.00;;
7426;SDS011;3755;59.316;18.092;2022-08-21T05:59:20;7.88;;;1.95;;
7426;SDS011;3755;59.316;18.092;2022-08-21T06:01:48;10.57;;;2.13;;
7426;SDS011;3755;59.316;18.092;2022-08-21T06:04:17;5.45;;;1.55;;
7426;SDS011;3755;59.316;18.092;2022-08-21T06:06:44;9.05;;;2.03;;
7426;SDS011;3755;59.316;18.092;2022-08-21T06:09:12;8.15;;;2.30;;
7426;SDS011;3755;59.316;18.092;2022-08-21T06:11:39;8.57;;;2.25;;
7426;SDS011;3755;59.316;18.092;2022-08-21T06:14:07;8.00;;;2.17;;
7426;SDS011;3755;59.316;18.092;2022-08-21T06:16:34;7.32;;;1.80;;
7426;SDS011;3755;59.316;18.092;2022-08-21T06:19:01;11.80;;;2.22;;
7426;SDS011;3755;59.316;18.092;2022-08-21T06:21:29;8.00;;;2.40;;
7426;SDS011;3755;59.316;18.092;2022-08-21T06:23:58;7.35;;;2.28;;
7426;SDS011;3755;59.316;18.092;2022-08-21T06:26:25;8.15;;;2.50;;
7426;SDS011;3755;59.316;18.092;2022-08-21T06:28:59;7.55;;;2.17;;
7426;SDS011;3755;59.316;18.092;2022-08-21T06:31:29;8.00;;;1.83;;
7426;SDS011;3755;59.316;18.092;2022-08-21T06:33:57;7.78;;;2.65;;
7426;SDS011;3755;59.316;18.092;2022-08-21T06:36:24;4.55;;;1.75;;
7426;SDS011;3755;59.316;18.092;2022-08-21T06:38:52;8.63;;;2.00;;
7426;SDS011;3755;59.316;18.092;2022-08-21T06:41:19;9.07;;;2.72;;
7426;SDS011;3755;59.316;18.092;2022-08-21T06:43:46;8.48;;;2.10;;
7426;SDS011;3755;59.316;18.092;2022-08-21T06:46:15;8.95;;;2.15;;
7426;SDS011;3755;59.316;18.092;2022-08-21T06:48:44;11.50;;;2.20;;
7426;SDS011;3755;59.316;18.092;2022-08-21T06:51:11;6.25;;;1.75;;
7426;SDS011;3755;59.316;18.092;2022-08-21T06:53:38;10.75;;;2.17;;
7426;SDS011;3755;59.316;18.092;2022-08-21T06:56:05;6.05;;;1.88;;
7426;SDS011;3755;59.316;18.092;2022-08-21T06:58:33;9.25;;;2.45;;
7426;SDS011;3755;59.316;18.092;2022-08-21T07:01:02;7.80;;;1.92;;
7426;SDS011;3755;59.316;18.092;2022-08-21T07:03:31;5.60;;;1.63;;
7426;SDS011;3755;59.316;18.092;2022-08-21T07:06:01;6.63;;;1.88;;
7426;SDS011;3755;59.316;18.092;2022-08-21T07:08:28;10.52;;;1.98;;
7426;SDS011;3755;59.316;18.092;2022-08-21T07:10:56;8.02;;;2.13;;
7426;SDS011;3755;59.316;18.092;2022-08-21T07:13:25;6.00;;;2.00;;
7426;SDS011;3755;59.316;18.092;2022-08-21T07:15:53;9.32;;;2.40;;
7426;SDS011;3755;59.316;18.092;2022-08-21T07:18:21;6.68;;;1.77;;
7426;SDS011;3755;59.316;18.092;2022-08-21T07:20:48;8.27;;;2.13;;
7426;SDS011;3755;59.316;18.092;2022-08-21T07:23:19;8.10;;;2.15;;
7426;SDS011;3755;59.316;18.092;2022-08-21T07:25:49;7.10;;;2.10;;
7426;SDS011;3755;59.316;18.092;2022-08-21T07:28:16;10.30;;;2.22;;
7426;SDS011;3755;59.316;18.092;2022-08-21T07:30:43;6.57;;;2.20;;
7426;SDS011;3755;59.316;18.092;2022-08-21T07:33:11;8.07;;;2.58;;
7426;SDS011;3755;59.316;18.092;2022-08-21T07:35:38;8.82;;;2.38;;
7426;SDS011;3755;59.316;18.092;2022-08-21T07:38:05;7.10;;;2.03;;
7426;SDS011;3755;59.316;18.092;2022-08-21T07:40:34;8.35;;;2.55;;
7426;SDS011;3755;59.316;18.092;2022-08-21T07:43:01;7.43;;;2.30;;
7426;SDS011;3755;59.316;18.092;2022-08-21T07:45:31;7.55;;;2.08;;
7426;SDS011;3755;59.316;18.092;2022-08-21T07:47:59;5.80;;;2.25;;
7426;SDS011;3755;59.316;18.092;2022-08-21T07:50:27;8.73;;;2.40;;
7426;SDS011;3755;59.316;18.092;2022-08-21T07:52:54;5.68;;;1.90;;
7426;SDS011;3755;59.316;18.092;2022-08-21T07:55:24;6.60;;;2.05;;
7426;SDS011;3755;59.316;18.092;2022-08-21T07:57:53;7.88;;;2.05;;
7426;SDS011;3755;59.316;18.092;2022-08-21T08:00:21;4.53;;;2.20;;
7426;SDS011;3755;59.316;18.092;2022-08-21T08:02:51;6.60;;;2.38;;
7426;SDS011;3755;59.316;18.092;2022-08-21T08:05:20;3.97;;;1.80;;
7426;SDS011;3755;59.316;18.092;2022-08-21T08:08:04;9.73;;;2.65;;
7426;SDS011;3755;59.316;18.092;2022-08-21T08:10:31;7.03;;;1.80;;
7426;SDS011;3755;59.316;18.092;2022-08-21T08:13:00;7.68;;;1.90;;
7426;SDS011;3755;59.316;18.092;2022-08-21T08:15:28;8.18;;;2.50;;
7426;SDS011;3755;59.316;18.092;2022-08-21T08:17:56;9.55;;;2.28;;
7426;SDS011;3755;59.316;18.092;2022-08-21T08:20:24;8.68;;;2.00;;
7426;SDS011;3755;59.316;18.092;2022-08-21T08:22:52;7.35;;;2.00;;
7426;SDS011;3755;59.316;18.092;2022-08-21T08:25:22;5.43;;;2.33;;
7426;SDS011;3755;59.316;18.092;2022-08-21T08:27:50;8.13;;;1.77;;
7426;SDS011;3755;59.316;18.092;2022-08-21T08:30:21;5.60;;;1.90;;
7426;SDS011;3755;59.316;18.092;2022-08-21T08:32:49;7.40;;;1.83;;
7426;SDS011;3755;59.316;18.092;2022-08-21T08:35:16;9.90;;;2.40;;
7426;SDS011;3755;59.316;18.092;2022-08-21T08:37:44;8.40;;;1.95;;
7426;SDS011;3755;59.316;18.092;2022-08-21T08:40:12;10.82;;;2.15;;
7426;SDS011;3755;59.316;18.092;2022-08-21T08:42:48;7.93;;;1.90;;
7426;SDS011;3755;59.316;18.092;2022-08-21T08:45:17;6.72;;;2.38;;
7426;SDS011;3755;59.316;18.092;2022-08-21T08:47:52;8.00;;;2.20;;
7426;SDS011;3755;59.316;18.092;2022-08-21T08:50:26;6.00;;;2.00;;
7426;SDS011;3755;59.316;18.092;2022-08-21T08:53:02;6.25;;;1.98;;
7426;SDS011;3755;59.316;18.092;2022-08-21T08:55:35;8.23;;;1.98;;
7426;SDS011;3755;59.316;18.092;2022-08-21T08:58:18;6.60;;;1.85;;
7426;SDS011;3755;59.316;18.092;2022-08-21T09:00:51;6.15;;;2.25;;
7426;SDS011;3755;59.316;18.092;2022-08-21T09:03:20;8.60;;;2.22;;
7426;SDS011;3755;59.316;18.092;2022-08-21T09:05:54;8.23;;;2.17;;
7426;SDS011;3755;59.316;18.092;2022-08-21T09:08:34;8.65;;;2.22;;
7426;SDS011;3755;59.316;18.092;2022-08-21T09:11:10;4.82;;;2.42;;
7426;SDS011;3755;59.316;18.092;2022-08-21T09:13:46;7.22;;;2.20;;
7426;SDS011;3755;59.316;18.092;2022-08-21T09:16:24;4.05;;;1.80;;
7426;SDS011;3755;59.316;18.092;2022-08-21T09:19:03;8.50;;;2.25;;
7426;SDS011;3755;59.316;18.092;2022-08-21T09:21:38;6.85;;;1.88;;
7426;SDS011;3755;59.316;18.092;2022-08-21T09:24:18;8.85;;;2.00;;
7426;SDS011;3755;59.316;18.092;2022-08-21T09:26:57;6.68;;;2.15;;
7426;SDS011;3755;59.316;18.092;2022-08-21T09:29:31;7.05;;;2.00;;
7426;SDS011;3755;59.316;18.092;2022-08-21T09:32:09;5.45;;;1.83;;
7426;SDS011;3755;59.316;18.092;2022-08-21T09:34:53;5.60;;;1.75;;
7426;SDS011;3755;59.316;18.092;2022-08-21T09:37:22;4.90;;;1.85;;
7426;SDS011;3755;59.316;18.092;2022-08-21T09:39:56;10.30;;;2.10;;
7426;SDS011;3755;59.316;18.092;2022-08-21T09:42:25;3.95;;;1.48;;
7426;SDS011;3755;59.316;18.092;2022-08-21T09:45:05;5.47;;;1.63;;
7426;SDS011;3755;59.316;18.092;2022-08-21T09:47:41;5.13;;;1.80;;
7426;SDS011;3755;59.316;18.092;2022-08-21T09:50:12;7.05;;;1.50;;
7426;SDS011;3755;59.316;18.092;2022-08-21T09:52:46;7.50;;;1.85;;
7426;SDS011;3755;59.316;18.092;2022-08-21T09:55:33;5.80;;;1.70;;
7426;SDS011;3755;59.316;18.092;2022-08-21T09:58:29;5.53;;;1.63;;
7426;SDS011;3755;59.316;18.092;2022-08-21T10:00:58;7.18;;;1.98;;
7426;SDS011;3755;59.316;18.092;2022-08-21T10:03:29;6.78;;;1.40;;
7426;SDS011;3755;59.316;18.092;2022-08-21T10:05:57;5.20;;;1.85;;
7426;SDS011;3755;59.316;18.092;2022-08-21T10:08:27;6.13;;;1.92;;
7426;SDS011;3755;59.316;18.092;2022-08-21T10:10:57;5.32;;;1.70;;
7426;SDS011;3755;59.316;18.092;2022-08-21T10:13:32;6.00;;;1.88;;
7426;SDS011;3755;59.316;18.092;2022-08-21T10:16:15;5.20;;;1.95;;
7426;SDS011;3755;59.316;18.092;2022-08-21T10:19:01;5.10;;;2.40;;
7426;SDS011;3755;59.316;18.092;2022-08-21T10:21:37;7.15;;;1.88;;
7426;SDS011;3755;59.316;18.092;2022-08-21T10:24:12;8.60;;;1.92;;
7426;SDS011;3755;59.316;18.092;2022-08-21T10:26:52;5.80;;;1.98;;
7426;SDS011;3755;59.316;18.092;2022-08-21T10:29:36;5.72;;;1.70;;
7426;SDS011;3755;59.316;18.092;2022-08-21T10:32:12;6.95;;;1.70;;
7426;SDS011;3755;59.316;18.092;2022-08-21T10:34:50;5.13;;;1.67;;
7426;SDS011;3755;59.316;18.092;2022-08-21T10:37:27;5.93;;;1.60;;
7426;SDS011;3755;59.316;18.092;2022-08-21T10:40:09;5.82;;;2.33;;
7426;SDS011;3755;59.316;18.092;2022-08-21T10:42:46;5.53;;;1.90;;
7426;SDS011;3755;59.316;18.092;2022-08-21T10:45:25;7.57;;;2.08;;
7426;SDS011;3755;59.316;18.092;2022-08-21T10:48:01;7.50;;;1.60;;
7426;SDS011;3755;59.316;18.092;2022-08-21T10:50:34;6.75;;;1.63;;
7426;SDS011;3755;59.316;18.092;2022-08-21T10:53:16;5.30;;;1.80;;
7426;SDS011;3755;59.316;18.092;2022-08-21T10:55:55;6.47;;;2.20;;
7426;SDS011;3755;59.316;18.092;2022-08-21T10:58:26;4.45;;;1.85;;
7426;SDS011;3755;59.316;18.092;2022-08-21T11:00:57;3.90;;;1.40;;
7426;SDS011;3755;59.316;18.092;2022-08-21T11:03:32;2.75;;;1.13;;
7426;SDS011;3755;59.316;18.092;2022-08-21T11:06:08;6.50;;;1.88;;
7426;SDS011;3755;59.316;18.092;2022-08-21T11:08:40;4.38;;;1.30;;
7426;SDS011;3755;59.316;18.092;2022-08-21T11:11:10;4.55;;;1.52;;
7426;SDS011;3755;59.316;18.092;2022-08-21T11:13:43;3.88;;;1.23;;
7426;SDS011;3755;59.316;18.092;2022-08-21T11:16:16;5.60;;;1.67;;
7426;SDS011;3755;59.316;18.092;2022-08-21T11:18:50;7.13;;;1.95;;
7426;SDS011;3755;59.316;18.092;2022-08-21T11:21:29;7.13;;;2.42;;
7426;SDS011;3755;59.316;18.092;2022-08-21T11:24:04;7.93;;;2.15;;
7426;SDS011;3755;59.316;18.092;2022-08-21T11:26:44;5.18;;;1.85;;
7426;SDS011;3755;59.316;18.092;2022-08-21T11:29:17;6.30;;;2.05;;
7426;SDS011;3755;59.316;18.092;2022-08-21T11:31:58;4.20;;;2.10;;
7426;SDS011;3755;59.316;18.092;2022-08-21T11:34:42;6.80;;;2.35;;
7426;SDS011;3755;59.316;18.092;2022-08-21T11:37:37;6.47;;;2.08;;
7426;SDS011;3755;59.316;18.092;2022-08-21T11:40:19;6.25;;;2.00;;
7426;SDS011;3755;59.316;18.092;2022-08-21T11:43:00;2.78;;;1.50;;
7426;SDS011;3755;59.316;18.092;2022-08-21T11:45:38;6.55;;;1.75;;
7426;SDS011;3755;59.316;18.092;2022-08-21T11:48:12;9.20;;;2.17;;
7426;SDS011;3755;59.316;18.092;2022-08-21T11:50:52;5.53;;;1.70;;
7426;SDS011;3755;59.316;18.092;2022-08-21T11:53:24;5.20;;;1.77;;
7426;SDS011;3755;59.316;18.092;2022-08-21T11:55:59;8.25;;;1.98;;
7426;SDS011;3755;59.316;18.092;2022-08-21T11:58:31;3.92;;;1.80;;
7426;SDS011;3755;59.316;18.092;2022-08-21T12:01:05;5.95;;;1.63;;
7426;SDS011;3755;59.316;18.092;2022-08-21T12:03:36;5.93;;;2.05;;
7426;SDS011;3755;59.316;18.092;2022-08-21T12:06:08;5.60;;;1.67;;
7426;SDS011;3755;59.316;18.092;2022-08-21T12:08:39;5.95;;;1.60;;
7426;SDS011;3755;59.316;18.092;2022-08-21T12:11:08;3.50;;;1.42;;
7426;SDS011;3755;59.316;18.092;2022-08-21T12:13:53;4.05;;;2.00;;
7426;SDS011;3755;59.316;18.092;2022-08-21T12:16:29;4.22;;;1.80;;
7426;SDS011;3755;59.316;18.092;2022-08-21T12:19:05;3.95;;;1.58;;
7426;SDS011;3755;59.316;18.092;2022-08-21T12:21:45;5.95;;;2.38;;
7426;SDS011;3755;59.316;18.092;2022-08-21T12:24:19;4.72;;;1.60;;
7426;SDS011;3755;59.316;18.092;2022-08-21T12:26:58;7.07;;;2.22;;
7426;SDS011;3755;59.316;18.092;2022-08-21T12:29:43;2.95;;;1.35;;
7426;SDS011;3755;59.316;18.092;2022-08-21T12:32:22;3.88;;;1.50;;
7426;SDS011;3755;59.316;18.092;2022-08-21T12:34:52;4.38;;;1.70;;
7426;SDS011;3755;59.316;18.092;2022-08-21T12:37:24;3.35;;;1.45;;
7426;SDS011;3755;59.316;18.092;2022-08-21T12:40:03;4.72;;;1.73;;
7426;SDS011;3755;59.316;18.092;2022-08-21T12:42:38;6.72;;;2.53;;
7426;SDS011;3755;59.316;18.092;2022-08-21T12:45:11;2.40;;;1.35;;
7426;SDS011;3755;59.316;18.092;2022-08-21T12:47:45;4.32;;;1.80;;
7426;SDS011;3755;59.316;18.092;2022-08-21T12:50:24;5.85;;;1.67;;
7426;SDS011;3755;59.316;18.092;2022-08-21T12:52:59;3.40;;;0.93;;
7426;SDS011;3755;59.316;18.092;2022-08-21T12:55:35;4.80;;;1.90;;
7426;SDS011;3755;59.316;18.092;2022-08-21T12:58:17;4.15;;;1.10;;
7426;SDS011;3755;59.316;18.092;2022-08-21T13:00:49;2.92;;;1.08;;
7426;SDS011;3755;59.316;18.092;2022-08-21T13:03:18;2.15;;;1.00;;
7426;SDS011;3755;59.316;18.092;2022-08-21T13:05:48;2.70;;;1.30;;
7426;SDS011;3755;59.316;18.092;2022-08-21T13:08:19;2.97;;;1.20;;
7426;SDS011;3755;59.316;18.092;2022-08-21T13:10:55;3.08;;;1.35;;
7426;SDS011;3755;59.316;18.092;2022-08-21T13:13:26;2.72;;;1.10;;
7426;SDS011;3755;59.316;18.092;2022-08-21T13:15:58;1.83;;;0.93;;
7426;SDS011;3755;59.316;18.092;2022-08-21T13:18:29;1.60;;;1.10;;
7426;SDS011;3755;59.316;18.092;2022-08-21T13:21:05;2.30;;;0.93;;
7426;SDS011;3755;59.316;18.092;2022-08-21T13:23:36;2.03;;;1.20;;
7426;SDS011;3755;59.316;18.092;2022-08-21T13:26:13;2.88;;;0.93;;
7426;SDS011;3755;59.316;18.092;2022-08-21T13:28:41;1.73;;;0.93;;
7426;SDS011;3755;59.316;18.092;2022-08-21T13:31:15;2.58;;;0.93;;
7426;SDS011;3755;59.316;18.092;2022-08-21T13:33:46;1.65;;;0.90;;
7426;SDS011;3755;59.316;18.092;2022-08-21T13:36:17;6.07;;;1.35;;
7426;SDS011;3755;59.316;18.092;2022-08-21T13:38:50;1.92;;;1.10;;
7426;SDS011;3755;59.316;18.092;2022-08-21T14:04:18;2.75;;;1.17;;
7426;SDS011;3755;59.316;18.092;2022-08-21T14:06:48;3.03;;;1.30;;
7426;SDS011;3755;59.316;18.092;2022-08-21T14:09:21;2.53;;;0.93;;
7426;SDS011;3755;59.316;18.092;2022-08-21T14:11:53;3.33;;;1.20;;
7426;SDS011;3755;59.316;18.092;2022-08-21T14:14:26;4.25;;;1.20;;
7426;SDS011;3755;59.316;18.092;2022-08-21T14:16:56;3.72;;;1.42;;
7426;SDS011;3755;59.316;18.092;2022-08-21T14:19:35;1.23;;;1.13;;
7426;SDS011;3755;59.316;18.092;2022-08-21T14:25:08;3.38;;;1.30;;
7426;SDS011;3755;59.316;18.092;2022-08-21T14:27:40;1.52;;;0.88;;
7426;SDS011;3755;59.316;18.092;2022-08-21T14:30:11;3.55;;;1.35;;
7426;SDS011;3755;59.316;18.092;2022-08-21T14:32:44;2.95;;;1.27;;
7426;SDS011;3755;59.316;18.092;2022-08-21T14:35:15;2.92;;;1.17;;
7426;SDS011;3755;59.316;18.092;2022-08-21T14:37:43;4.22;;;1.33;;
7426;SDS011;3755;59.316;18.092;2022-08-21T14:40:11;3.55;;;1.48;;
7426;SDS011;3755;59.316;18.092;2022-08-21T14:42:39;2.05;;;1.40;;
7426;SDS011;3755;59.316;18.092;2022-08-21T14:45:10;2.00;;;1.00;;
7426;SDS011;3755;59.316;18.092;2022-08-21T14:47:42;4.03;;;1.40;;
7426;SDS011;3755;59.316;18.092;2022-08-21T14:50:09;3.42;;;1.30;;
7426;SDS011;3755;59.316;18.092;2022-08-21T14:52:41;2.65;;;1.20;;
7426;SDS011;3755;59.316;18.092;2022-08-21T14:55:11;2.35;;;1.20;;
7426;SDS011;3755;59.316;18.092;2022-08-21T14:57:40;2.83;;;1.08;;
7426;SDS011;3755;59.316;18.092;2022-08-21T15:00:09;3.03;;;1.50;;
7426;SDS011;3755;59.316;18.092;2022-08-21T15:02:38;3.72;;;1.45;;
7426;SDS011;3755;59.316;18.092;2022-08-21T15:05:08;3.10;;;1.15;;
7426;SDS011;3755;59.316;18.092;2022-08-21T15:07:35;2.95;;;1.30;;
7426;SDS011;3755;59.316;18.092;2022-08-21T15:10:05;2.58;;;1.15;;
7426;SDS011;3755;59.316;18.092;2022-08-21T15:12:33;3.60;;;1.48;;
7426;SDS011;3755;59.316;18.092;2022-08-21T15:15:01;2.05;;;1.45;;
7426;SDS011;3755;59.316;18.092;2022-08-21T15:17:28;2.72;;;1.33;;
7426;SDS011;3755;59.316;18.092;2022-08-21T15:19:56;4.10;;;1.45;;
7426;SDS011;3755;59.316;18.092;2022-08-21T15:22:23;3.13;;;1.30;;
7426;SDS011;3755;59.316;18.092;2022-08-21T15:24:52;3.00;;;1.40;;
7426;SDS011;3755;59.316;18.092;2022-08-21T15:27:21;3.95;;;1.50;;
7426;SDS011;3755;59.316;18.092;2022-08-21T15:29:48;2.78;;;1.35;;
7426;SDS011;3755;59.316;18.092;2022-08-21T15:32:19;5.03;;;1.33;;
7426;SDS011;3755;59.316;18.092;2022-08-21T15:34:48;3.40;;;1.30;;
7426;SDS011;3755;59.316;18.092;2022-08-21T15:37:15;3.53;;;1.23;;
7426;SDS011;3755;59.316;18.092;2022-08-21T15:39:43;2.53;;;1.40;;
7426;SDS011;3755;59.316;18.092;2022-08-21T15:42:10;4.78;;;1.90;;
7426;SDS011;3755;59.316;18.092;2022-08-21T15:44:42;3.80;;;1.13;;
7426;SDS011;3755;59.316;18.092;2022-08-21T15:47:11;2.67;;;1.25;;